Time;durP1;ratioP1;P1;durP2;ratioP2;P2;SDS_P1;SDS_P2;PMS_P1;PMS_P2;Temp;Humidity;BMP_temperature;BMP_pressure;BME280_temperature;BME280_humidity;BME280_pressure;Samples;Min_cycle;Max_cycle;Signal;HPM_P1;HPM_P2
2023/09/18 00:00:44;;;;;;;2.75;2.42;;;;;;;;;;4998377;28;20248;-54
2023/09/18 00:03:10;;;;;;;3.63;2.97;;;;;;;;;;5000362;28;20200;-55
2023/09/18 00:05:36;;;;;;;2.80;2.53;;;;;;;;;;5000417;28;20438;-55
2023/09/18 00:08:02;;;;;;;4.32;2.90;;;;;;;;;;4993830;28;20217;-54
2023/09/18 00:10:30;;;;;;;2.67;2.47;;;;;;;;;;5007467;28;20181;-55
2023/09/18 00:12:56;;;;;;;3.75;3.00;;;;;;;;;;5004152;28;20228;-55
2023/09/18 00:15:22;;;;;;;2.70;2.50;;;;;;;;;;5002179;28;20216;-55
2023/09/18 00:17:48;;;;;;;2.72;2.53;;;;;;;;;;4990611;28;20182;-55
2023/09/18 00:20:13;;;;;;;2.85;2.50;;;;;;;;;;5000629;28;20675;-54
2023/09/18 00:22:40;;;;;;;3.25;2.65;;;;;;;;;;4995690;28;20305;-54
2023/09/18 00:25:06;;;;;;;2.60;2.40;;;;;;;;;;4994617;28;20208;-54
2023/09/18 00:27:32;;;;;;;2.85;2.55;;;;;;;;;;4998224;28;20215;-54
2023/09/18 00:29:58;;;;;;;3.65;2.78;;;;;;;;;;5004132;28;20216;-55
2023/09/18 00:32:24;;;;;;;2.75;2.55;;;;;;;;;;4994672;28;20188;-54
2023/09/18 00:34:50;;;;;;;2.38;2.08;;;;;;;;;;5002822;28;20268;-54
2023/09/18 00:37:16;;;;;;;2.50;2.30;;;;;;;;;;5006415;28;20316;-55
2023/09/18 00:39:43;;;;;;;2.53;2.30;;;;;;;;;;5002629;28;20191;-54
2023/09/18 00:42:13;;;;;;;3.00;2.70;;;;;;;;;;4991440;28;20185;-54
2023/09/18 00:44:39;;;;;;;2.70;2.50;;;;;;;;;;4997200;28;20184;-54
2023/09/18 00:47:05;;;;;;;2.80;2.45;;;;;;;;;;5008302;28;20204;-54
2023/09/18 00:49:33;;;;;;;6.00;2.47;;;;;;;;;;4999831;28;20195;-54
2023/09/18 00:51:59;;;;;;;3.15;2.67;;;;;;;;;;4995358;28;20220;-55
2023/09/18 00:54:25;;;;;;;2.92;2.70;;;;;;;;;;5000620;28;20185;-54
2023/09/18 00:56:53;;;;;;;2.80;2.60;;;;;;;;;;4999722;28;20193;-54
2023/09/18 00:59:20;;;;;;;3.58;2.65;;;;;;;;;;4993290;28;20189;-54
2023/09/18 01:01:45;;;;;;;3.55;2.83;;;;;;;;;;5012260;28;20275;-54
2023/09/18 01:04:13;;;;;;;2.70;2.50;;;;;;;;;;5000387;28;20273;-54
2023/09/18 01:06:39;;;;;;;3.22;2.67;;;;;;;;;;4994037;28;20249;-54
2023/09/18 01:09:12;;;;;;;4.57;2.75;;;;;;;;;;5003109;28;20185;-54
2023/09/18 01:11:58;;;;;;;2.70;2.50;;;;;;;;;;5003298;28;20268;-54
2023/09/18 01:14:32;;;;;;;2.53;2.33;;;;;;;;;;5001054;28;20185;-54
2023/09/18 01:16:59;;;;;;;4.30;2.63;;;;;;;;;;4996487;28;20566;-54
2023/09/18 01:19:37;;;;;;;3.45;2.30;;;;;;;;;;5001048;28;20430;-54
2023/09/18 01:22:04;;;;;;;4.28;2.80;;;;;;;;;;4992425;28;20251;-54
2023/09/18 01:24:30;;;;;;;2.30;2.10;;;;;;;;;;4999992;28;20196;-54
2023/09/18 01:26:56;;;;;;;2.67;2.25;;;;;;;;;;5002467;28;20288;-55
2023/09/18 01:29:22;;;;;;;2.25;2.05;;;;;;;;;;5001569;28;20189;-54
2023/09/18 01:31:48;;;;;;;3.05;2.75;;;;;;;;;;4996673;28;20271;-54
2023/09/18 01:34:17;;;;;;;3.13;2.58;;;;;;;;;;5005725;28;20191;-54
2023/09/18 01:36:44;;;;;;;2.72;2.53;;;;;;;;;;4999471;28;20185;-54
2023/09/18 01:39:11;;;;;;;2.65;2.22;;;;;;;;;;4998813;28;20177;-54
2023/09/18 01:41:37;;;;;;;2.53;2.33;;;;;;;;;;5005673;28;20188;-54
2023/09/18 01:44:04;;;;;;;2.55;2.35;;;;;;;;;;4992346;28;20197;-54
2023/09/18 01:46:32;;;;;;;3.78;2.67;;;;;;;;;;4995896;28;20192;-54
2023/09/18 01:48:58;;;;;;;2.40;2.20;;;;;;;;;;5007016;28;20227;-54
2023/09/18 01:51:24;;;;;;;3.03;2.40;;;;;;;;;;5001935;28;20627;-54
2023/09/18 01:53:50;;;;;;;2.72;2.22;;;;;;;;;;4996062;28;20185;-54
2023/09/18 01:56:16;;;;;;;2.78;2.45;;;;;;;;;;5006851;28;20188;-54
2023/09/18 01:58:42;;;;;;;2.30;2.10;;;;;;;;;;4993832;28;20235;-54
2023/09/18 02:01:08;;;;;;;3.47;2.28;;;;;;;;;;4994909;28;20609;-54
2023/09/18 02:03:34;;;;;;;5.25;2.08;;;;;;;;;;5003066;28;20185;-54
2023/09/18 02:06:00;;;;;;;2.53;2.33;;;;;;;;;;4994366;28;20272;-54
2023/09/18 02:08:26;;;;;;;3.03;2.30;;;;;;;;;;4996973;28;20268;-54
2023/09/18 02:10:52;;;;;;;2.13;1.92;;;;;;;;;;4995816;28;20886;-54
2023/09/18 02:13:18;;;;;;;2.50;2.30;;;;;;;;;;4991621;28;20256;-54
2023/09/18 02:15:44;;;;;;;2.72;2.20;;;;;;;;;;4991663;28;20188;-54
2023/09/18 02:18:10;;;;;;;2.30;2.10;;;;;;;;;;4999803;28;20197;-54
2023/09/18 02:20:44;;;;;;;2.80;2.10;;;;;;;;;;4999727;28;20192;-54
2023/09/18 02:23:10;;;;;;;2.30;2.10;;;;;;;;;;4994146;28;20481;-54
2023/09/18 02:25:36;;;;;;;2.13;2.03;;;;;;;;;;5006204;28;20242;-54
2023/09/18 02:28:01;;;;;;;3.35;2.22;;;;;;;;;;5014649;28;20208;-54
2023/09/18 02:30:28;;;;;;;3.60;2.10;;;;;;;;;;5002918;28;20181;-54
2023/09/18 02:32:55;;;;;;;2.92;2.10;;;;;;;;;;4995583;28;20184;-56
2023/09/18 02:35:21;;;;;;;3.72;2.38;;;;;;;;;;4999713;28;20231;-54
2023/09/18 02:37:47;;;;;;;3.40;2.47;;;;;;;;;;5003161;28;20557;-54
2023/09/18 02:40:13;;;;;;;3.22;2.08;;;;;;;;;;4994753;28;20505;-54
2023/09/18 02:42:39;;;;;;;2.05;1.90;;;;;;;;;;4997089;28;20196;-54
2023/09/18 02:45:05;;;;;;;2.33;2.13;;;;;;;;;;5009778;28;20475;-54
2023/09/18 02:47:32;;;;;;;2.40;2.20;;;;;;;;;;4998108;28;20216;-54
2023/09/18 02:49:57;;;;;;;2.17;1.98;;;;;;;;;;5000706;28;20180;-54
2023/09/18 02:52:23;;;;;;;2.20;2.00;;;;;;;;;;4996832;28;20189;-54
2023/09/18 02:54:49;;;;;;;2.30;2.10;;;;;;;;;;4990137;28;20544;-54
2023/09/18 02:57:15;;;;;;;1.90;1.80;;;;;;;;;;5006344;28;20284;-54
2023/09/18 02:59:41;;;;;;;2.50;2.25;;;;;;;;;;4999399;28;20264;-54
2023/09/18 03:02:07;;;;;;;1.98;1.85;;;;;;;;;;4994150;28;20208;-54
2023/09/18 03:04:33;;;;;;;2.35;1.90;;;;;;;;;;4998779;28;20189;-54
2023/09/18 03:06:59;;;;;;;2.40;2.20;;;;;;;;;;5005285;28;20189;-55
2023/09/18 03:09:25;;;;;;;2.53;2.33;;;;;;;;;;5001520;28;20173;-55
2023/09/18 03:11:51;;;;;;;2.35;2.15;;;;;;;;;;5008849;28;20227;-55
2023/09/18 03:14:17;;;;;;;2.10;1.90;;;;;;;;;;5000306;28;20611;-55
2023/09/18 03:16:44;;;;;;;3.60;2.40;;;;;;;;;;5002502;28;20267;-55
2023/09/18 03:19:10;;;;;;;3.72;2.20;;;;;;;;;;5007805;28;20209;-51
2023/09/18 03:21:36;;;;;;;5.50;2.67;;;;;;;;;;4999513;28;20266;-46
2023/09/18 03:24:02;;;;;;;3.53;2.55;;;;;;;;;;5005347;28;20608;-55
2023/09/18 03:26:28;;;;;;;2.38;2.17;;;;;;;;;;4997224;28;20208;-51
2023/09/18 03:28:54;;;;;;;2.85;2.30;;;;;;;;;;4996330;28;20209;-50
2023/09/18 03:31:20;;;;;;;2.85;2.50;;;;;;;;;;5004190;28;20248;-53
2023/09/18 03:33:46;;;;;;;4.97;2.10;;;;;;;;;;5003054;28;20181;-52
2023/09/18 03:36:13;;;;;;;2.78;1.95;;;;;;;;;;5003133;28;20181;-52
2023/09/18 03:38:39;;;;;;;3.83;2.20;;;;;;;;;;4998339;28;20184;-52
2023/09/18 03:41:05;;;;;;;2.83;2.25;;;;;;;;;;5004094;28;20231;-53
2023/09/18 03:43:31;;;;;;;4.18;2.53;;;;;;;;;;4997129;28;20186;-53
2023/09/18 03:46:15;;;;;;;14.35;3.10;;;;;;;;;;4993812;28;20548;-55
2023/09/18 03:48:41;;;;;;;15.60;3.97;;;;;;;;;;5006967;28;20177;-45
2023/09/18 03:51:12;;;;;;;10.55;3.97;;;;;;;;;;5003754;28;20184;-49
2023/09/18 03:53:38;;;;;;;13.05;4.20;;;;;;;;;;4993727;28;20574;-50
2023/09/18 03:56:04;;;;;;;11.20;4.45;;;;;;;;;;5009185;28;20204;-61
2023/09/18 03:58:30;;;;;;;9.02;3.80;;;;;;;;;;5010285;28;20184;-51
2023/09/18 04:00:56;;;;;;;7.80;3.25;;;;;;;;;;5000775;28;20173;-57
2023/09/18 04:03:22;;;;;;;11.90;3.50;;;;;;;;;;4991587;28;20217;-49
2023/09/18 04:05:48;;;;;;;8.57;3.83;;;;;;;;;;5008458;28;20209;-50
2023/09/18 04:08:14;;;;;;;9.18;3.85;;;;;;;;;;4995326;28;20209;-51
2023/09/18 04:10:40;;;;;;;8.43;3.47;;;;;;;;;;5004002;28;20243;-47
2023/09/18 04:13:06;;;;;;;13.38;3.75;;;;;;;;;;4993328;28;20181;-52
2023/09/18 04:15:31;;;;;;;5.20;3.33;;;;;;;;;;5000764;28;20192;-46
2023/09/18 04:17:57;;;;;;;7.68;3.10;;;;;;;;;;5004342;28;20185;-50
2023/09/18 04:20:24;;;;;;;7.03;2.95;;;;;;;;;;5004667;28;20185;-50
2023/09/18 04:23:09;;;;;;;8.25;2.92;;;;;;;;;;5002878;28;20471;-49
2023/09/18 04:25:35;;;;;;;5.45;2.97;;;;;;;;;;5005112;28;20193;-50
2023/09/18 04:28:01;;;;;;;4.60;2.97;;;;;;;;;;5008707;28;20495;-49
2023/09/18 04:30:27;;;;;;;4.43;2.65;;;;;;;;;;5008372;28;20307;-50
2023/09/18 04:32:54;;;;;;;6.65;3.17;;;;;;;;;;4998565;28;20221;-54
2023/09/18 04:35:20;;;;;;;7.60;2.70;;;;;;;;;;5009501;28;20495;-51
2023/09/18 04:37:46;;;;;;;6.93;2.60;;;;;;;;;;4998908;28;20181;-50
2023/09/18 04:40:12;;;;;;;4.03;2.40;;;;;;;;;;5009344;28;20172;-50
2023/09/18 04:42:39;;;;;;;5.35;2.80;;;;;;;;;;4992405;28;20570;-51
2023/09/18 04:45:06;;;;;;;3.83;2.63;;;;;;;;;;5003586;28;20181;-51
2023/09/18 04:47:32;;;;;;;5.82;2.63;;;;;;;;;;4997309;28;20570;-50
2023/09/18 04:49:58;;;;;;;4.45;2.60;;;;;;;;;;5007979;28;20204;-50
2023/09/18 04:52:24;;;;;;;2.88;2.40;;;;;;;;;;5003446;28;20552;-50
2023/09/18 04:54:50;;;;;;;4.80;2.80;;;;;;;;;;4995208;28;20204;-50
2023/09/18 04:57:16;;;;;;;5.68;2.72;;;;;;;;;;5018033;28;20169;-50
2023/09/18 04:59:41;;;;;;;5.78;3.10;;;;;;;;;;5017964;28;20169;-50
2023/09/18 05:02:07;;;;;;;6.45;2.83;;;;;;;;;;5017616;28;20192;-50
2023/09/18 05:04:33;;;;;;;7.88;2.90;;;;;;;;;;5017839;28;20264;-50
2023/09/18 05:07:02;;;;;;;3.58;2.20;;;;;;;;;;5017776;28;20219;-50
2023/09/18 05:09:28;;;;;;;3.55;2.60;;;;;;;;;;5017729;28;20165;-50
2023/09/18 05:11:54;;;;;;;6.43;2.90;;;;;;;;;;5017482;28;20164;-50
2023/09/18 05:14:20;;;;;;;3.25;2.33;;;;;;;;;;5017540;28;20443;-50
2023/09/18 05:16:46;;;;;;;3.90;2.33;;;;;;;;;;5016845;28;20571;-49
2023/09/18 05:19:12;;;;;;;5.63;2.75;;;;;;;;;;5016844;28;20172;-50
2023/09/18 05:21:38;;;;;;;4.72;2.40;;;;;;;;;;5017084;28;20175;-49
2023/09/18 05:24:04;;;;;;;4.20;2.33;;;;;;;;;;5017369;28;20242;-50
2023/09/18 05:26:30;;;;;;;3.28;2.40;;;;;;;;;;5017407;28;20188;-50
2023/09/18 05:28:57;;;;;;;6.20;2.50;;;;;;;;;;5017448;28;20189;-50
2023/09/18 05:31:24;;;;;;;2.70;2.28;;;;;;;;;;5017078;28;20165;-49
2023/09/18 05:33:50;;;;;;;2.38;2.15;;;;;;;;;;5017467;28;20610;-50
2023/09/18 05:36:16;;;;;;;2.42;2.20;;;;;;;;;;5017273;28;20164;-51
2023/09/18 05:38:46;;;;;;;1.95;1.83;;;;;;;;;;5017311;28;20165;-51
2023/09/18 05:41:12;;;;;;;5.47;2.10;;;;;;;;;;5017036;28;20165;-51
2023/09/18 05:43:37;;;;;;;2.10;1.90;;;;;;;;;;5017026;28;20172;-51
2023/09/18 05:46:03;;;;;;;5.85;2.15;;;;;;;;;;5017020;28;20206;-52
2023/09/18 05:48:29;;;;;;;2.40;2.08;;;;;;;;;;5017208;28;20548;-52
2023/09/18 05:50:55;;;;;;;5.85;2.22;;;;;;;;;;5016928;28;20165;-52
2023/09/18 05:53:21;;;;;;;4.60;2.45;;;;;;;;;;5015633;28;20169;-52
2023/09/18 05:55:47;;;;;;;7.68;2.33;;;;;;;;;;5001316;28;20208;-53
2023/09/18 05:58:13;;;;;;;7.93;2.55;;;;;;;;;;4991279;28;20227;-53
2023/09/18 06:00:39;;;;;;;5.05;2.28;;;;;;;;;;5002782;28;20584;-53
2023/09/18 06:03:12;;;;;;;8.18;2.33;;;;;;;;;;5000992;28;20181;-53
2023/09/18 06:05:38;;;;;;;4.72;2.17;;;;;;;;;;5012285;28;20180;-53
2023/09/18 06:08:04;;;;;;;6.60;2.60;;;;;;;;;;4996660;28;20661;-53
2023/09/18 06:10:30;;;;;;;2.83;2.58;;;;;;;;;;4990331;28;20187;-53
2023/09/18 06:12:56;;;;;;;5.45;2.42;;;;;;;;;;4991269;28;20184;-53
2023/09/18 06:15:22;;;;;;;4.80;2.20;;;;;;;;;;5002158;28;20261;-53
2023/09/18 06:17:48;;;;;;;4.55;2.50;;;;;;;;;;4994643;28;20391;-53
2023/09/18 06:20:15;;;;;;;3.28;2.90;;;;;;;;;;4987987;28;20976;-53
2023/09/18 06:22:41;;;;;;;6.50;2.65;;;;;;;;;;4986342;28;20577;-52
2023/09/18 06:25:09;;;;;;;3.63;2.42;;;;;;;;;;4997554;28;20199;-52
2023/09/18 06:27:36;;;;;;;3.72;2.28;;;;;;;;;;5011224;28;20206;-52
2023/09/18 06:30:02;;;;;;;2.70;2.33;;;;;;;;;;5007989;28;20175;-52
2023/09/18 06:32:28;;;;;;;4.22;2.45;;;;;;;;;;5010225;28;20188;-52
2023/09/18 06:34:54;;;;;;;3.80;3.10;;;;;;;;;;5012618;28;20211;-52
2023/09/18 06:37:20;;;;;;;2.80;2.20;;;;;;;;;;5018478;28;20185;-52
2023/09/18 06:39:46;;;;;;;4.43;2.38;;;;;;;;;;5004978;28;20255;-52
2023/09/18 06:42:12;;;;;;;4.25;2.10;;;;;;;;;;4997887;28;20188;-52
2023/09/18 06:44:39;;;;;;;2.97;2.20;;;;;;;;;;4999517;28;20185;-52
2023/09/18 06:47:05;;;;;;;2.67;1.83;;;;;;;;;;5001165;28;20200;-52
2023/09/18 06:49:30;;;;;;;4.50;2.08;;;;;;;;;;4998352;28;20174;-53
2023/09/18 06:51:57;;;;;;;3.83;2.20;;;;;;;;;;4992332;28;20647;-53
2023/09/18 06:54:23;;;;;;;2.42;2.22;;;;;;;;;;5008916;28;20442;-53
2023/09/18 06:56:49;;;;;;;2.17;1.95;;;;;;;;;;5009696;28;20587;-53
2023/09/18 06:59:15;;;;;;;3.53;2.08;;;;;;;;;;5001127;28;20181;-52
2023/09/18 07:01:42;;;;;;;2.30;1.90;;;;;;;;;;5002591;28;20181;-53
2023/09/18 07:04:08;;;;;;;3.83;1.80;;;;;;;;;;4997314;28;20858;-52
2023/09/18 07:06:34;;;;;;;3.03;2.00;;;;;;;;;;5014267;28;20284;-52
2023/09/18 07:09:00;;;;;;;2.13;1.92;;;;;;;;;;5005388;28;20603;-53
2023/09/18 07:11:26;;;;;;;1.70;1.40;;;;;;;;;;5003842;28;20188;-52
2023/09/18 07:13:52;;;;;;;1.80;1.63;;;;;;;;;;5003841;28;20182;-52
2023/09/18 07:16:18;;;;;;;2.80;2.13;;;;;;;;;;5008696;28;20185;-52
2023/09/18 07:18:44;;;;;;;2.00;1.80;;;;;;;;;;5011000;28;20367;-52
2023/09/18 07:21:10;;;;;;;3.05;2.13;;;;;;;;;;5001872;28;20447;-52
2023/09/18 07:23:37;;;;;;;2.78;2.10;;;;;;;;;;5004113;28;20205;-52
2023/09/18 07:26:03;;;;;;;2.40;2.00;;;;;;;;;;4997083;28;20181;-52
2023/09/18 07:28:29;;;;;;;2.88;1.95;;;;;;;;;;4994908;28;20569;-52
2023/09/18 07:30:55;;;;;;;2.92;1.60;;;;;;;;;;5011513;28;20189;-52
2023/09/18 07:33:21;;;;;;;2.45;2.25;;;;;;;;;;5004392;28;20624;-52
2023/09/18 07:35:47;;;;;;;1.80;1.70;;;;;;;;;;5009173;28;20188;-52
2023/09/18 07:38:14;;;;;;;2.15;1.95;;;;;;;;;;5003745;28;20572;-52
2023/09/18 07:40:40;;;;;;;2.30;1.70;;;;;;;;;;5004307;28;20196;-52
2023/09/18 07:43:06;;;;;;;2.00;1.90;;;;;;;;;;4989765;28;20184;-53
2023/09/18 07:45:32;;;;;;;1.90;1.73;;;;;;;;;;5003410;28;20574;-52
2023/09/18 07:47:58;;;;;;;3.22;1.83;;;;;;;;;;4998693;28;20669;-52
2023/09/18 07:50:24;;;;;;;3.90;2.00;;;;;;;;;;4996556;28;20252;-52
2023/09/18 07:52:50;;;;;;;2.55;1.75;;;;;;;;;;5004680;28;20263;-52
2023/09/18 07:55:16;;;;;;;4.55;1.98;;;;;;;;;;5000129;28;20280;-52
2023/09/18 07:57:44;;;;;;;2.05;1.92;;;;;;;;;;5013772;28;20542;-52
2023/09/18 08:00:13;;;;;;;2.20;1.92;;;;;;;;;;4988190;28;20436;-52
2023/09/18 08:02:39;;;;;;;2.20;2.00;;;;;;;;;;4992773;28;20591;-52
2023/09/18 08:05:05;;;;;;;2.67;2.17;;;;;;;;;;4998199;28;20271;-52
2023/09/18 08:07:31;;;;;;;2.40;1.83;;;;;;;;;;5001389;28;20213;-52
2023/09/18 08:09:57;;;;;;;2.63;1.98;;;;;;;;;;5002102;28;20307;-52
2023/09/18 08:12:24;;;;;;;2.55;1.98;;;;;;;;;;5000656;28;20272;-52
2023/09/18 08:14:50;;;;;;;2.20;2.00;;;;;;;;;;5011744;28;20510;-52
2023/09/18 08:17:16;;;;;;;3.72;2.20;;;;;;;;;;5010750;28;20636;-52
2023/09/18 08:19:44;;;;;;;1.83;1.73;;;;;;;;;;4999935;28;20189;-52
2023/09/18 08:22:11;;;;;;;3.05;2.10;;;;;;;;;;4996445;28;20181;-52
2023/09/18 08:24:37;;;;;;;2.03;1.83;;;;;;;;;;5008977;28;20192;-52
2023/09/18 08:27:03;;;;;;;2.72;2.05;;;;;;;;;;4995259;28;20232;-52
2023/09/18 08:29:29;;;;;;;2.00;1.83;;;;;;;;;;4994216;28;20178;-52
2023/09/18 08:31:55;;;;;;;2.35;2.15;;;;;;;;;;5000045;28;20192;-52
2023/09/18 08:34:21;;;;;;;2.28;2.08;;;;;;;;;;4988743;28;20453;-52
2023/09/18 08:36:47;;;;;;;2.45;2.25;;;;;;;;;;5003832;28;20181;-52
2023/09/18 08:39:14;;;;;;;2.55;2.08;;;;;;;;;;5010851;28;20190;-52
2023/09/18 08:41:42;;;;;;;2.33;2.08;;;;;;;;;;5000004;28;20192;-52
2023/09/18 08:44:09;;;;;;;2.67;2.13;;;;;;;;;;4994402;28;20192;-52
2023/09/18 08:46:36;;;;;;;2.40;2.20;;;;;;;;;;5001589;28;20216;-53
2023/09/18 08:49:02;;;;;;;3.00;2.70;;;;;;;;;;5013512;28;20503;-52
2023/09/18 08:51:29;;;;;;;5.97;2.00;;;;;;;;;;5001607;28;20218;-52
2023/09/18 08:53:55;;;;;;;2.83;2.13;;;;;;;;;;5002687;28;20216;-52
2023/09/18 08:56:21;;;;;;;2.53;2.15;;;;;;;;;;5013882;28;20599;-52
2023/09/18 08:58:48;;;;;;;2.70;2.50;;;;;;;;;;5015602;28;20198;-52
2023/09/18 09:01:14;;;;;;;2.80;2.22;;;;;;;;;;5002842;28;20212;-52
2023/09/18 09:03:45;;;;;;;3.13;2.80;;;;;;;;;;4990816;28;20767;-52
2023/09/18 09:06:11;;;;;;;2.90;2.53;;;;;;;;;;5007101;28;20177;-52
2023/09/18 09:08:37;;;;;;;3.00;2.47;;;;;;;;;;5007461;28;20181;-52
2023/09/18 09:11:04;;;;;;;2.45;2.25;;;;;;;;;;4983711;28;20441;-52
2023/09/18 09:13:30;;;;;;;2.72;2.28;;;;;;;;;;4993492;28;20239;-52
2023/09/18 09:15:57;;;;;;;5.13;2.70;;;;;;;;;;4997791;28;20173;-52
2023/09/18 09:18:24;;;;;;;2.67;2.47;;;;;;;;;;5002994;28;20177;-52
2023/09/18 09:20:58;;;;;;;2.58;2.38;;;;;;;;;;4990094;28;20280;-52
2023/09/18 09:23:24;;;;;;;2.65;2.42;;;;;;;;;;4993040;28;20189;-52
2023/09/18 09:25:50;;;;;;;2.67;2.47;;;;;;;;;;5003095;28;20192;-52
2023/09/18 09:28:29;;;;;;;3.83;2.40;;;;;;;;;;4989104;28;20521;-52
2023/09/18 09:31:01;;;;;;;3.60;2.60;;;;;;;;;;5000688;28;20280;-52
2023/09/18 09:33:27;;;;;;;4.95;2.40;;;;;;;;;;5002346;28;20195;-52
2023/09/18 09:35:53;;;;;;;4.93;2.72;;;;;;;;;;5006512;28;20291;-52
2023/09/18 09:38:21;;;;;;;4.05;2.30;;;;;;;;;;5002565;28;20641;-52
2023/09/18 09:40:47;;;;;;;5.03;2.60;;;;;;;;;;5000954;28;20186;-51
2023/09/18 09:43:14;;;;;;;5.53;2.63;;;;;;;;;;4999199;28;20532;-51
2023/09/18 09:45:41;;;;;;;2.88;2.47;;;;;;;;;;4998717;28;20181;-51
2023/09/18 09:48:07;;;;;;;5.13;2.50;;;;;;;;;;5002099;28;20220;-51
2023/09/18 09:50:34;;;;;;;3.13;2.47;;;;;;;;;;5000113;28;20192;-52
2023/09/18 09:53:00;;;;;;;6.13;2.83;;;;;;;;;;5002854;28;20191;-52
2023/09/18 09:55:30;;;;;;;3.38;2.60;;;;;;;;;;5001413;28;20204;-52
2023/09/18 09:57:59;;;;;;;8.38;2.70;;;;;;;;;;4986302;28;20432;-52
2023/09/18 10:00:26;;;;;;;6.38;2.60;;;;;;;;;;5002422;28;20560;-52
2023/09/18 10:03:02;;;;;;;4.65;3.00;;;;;;;;;;4989718;28;20183;-52
2023/09/18 10:05:32;;;;;;;7.75;2.47;;;;;;;;;;5000139;28;20521;-52
2023/09/18 10:07:59;;;;;;;4.93;2.70;;;;;;;;;;4999684;28;20212;-52
2023/09/18 10:10:29;;;;;;;8.35;2.90;;;;;;;;;;5006384;28;20188;-52
2023/09/18 10:12:57;;;;;;;6.63;2.30;;;;;;;;;;4983310;28;20492;-52
2023/09/18 10:15:23;;;;;;;5.03;2.47;;;;;;;;;;5009756;28;20567;-52
2023/09/18 10:17:52;;;;;;;9.55;2.60;;;;;;;;;;4994791;28;20191;-52
2023/09/18 10:20:21;;;;;;;9.63;2.90;;;;;;;;;;4994703;28;20180;-52
2023/09/18 10:22:49;;;;;;;5.63;2.60;;;;;;;;;;4991390;28;20275;-52
2023/09/18 10:25:24;;;;;;;5.03;2.40;;;;;;;;;;4994663;28;20196;-52
2023/09/18 10:27:54;;;;;;;5.85;3.20;;;;;;;;;;4992640;28;20218;-52
2023/09/18 10:30:22;;;;;;;10.40;2.72;;;;;;;;;;5011095;28;20173;-52
2023/09/18 10:32:50;;;;;;;3.92;2.50;;;;;;;;;;4997146;28;20230;-52
2023/09/18 10:35:16;;;;;;;9.85;2.58;;;;;;;;;;5003730;28;20180;-52
2023/09/18 10:37:46;;;;;;;5.65;2.70;;;;;;;;;;4993639;28;20181;-52
2023/09/18 10:40:12;;;;;;;5.15;2.30;;;;;;;;;;4996722;28;20271;-52
2023/09/18 10:42:39;;;;;;;3.50;2.40;;;;;;;;;;4994721;28;20236;-51
2023/09/18 10:45:05;;;;;;;5.55;2.33;;;;;;;;;;4995450;28;20188;-51
2023/09/18 10:47:32;;;;;;;7.78;2.63;;;;;;;;;;5013748;28;20279;-51
2023/09/18 10:49:58;;;;;;;4.43;2.58;;;;;;;;;;4991685;28;20185;-51
2023/09/18 10:52:24;;;;;;;7.18;2.78;;;;;;;;;;4986644;28;20256;-51
2023/09/18 10:54:51;;;;;;;9.70;2.95;;;;;;;;;;4995539;28;20449;-51
2023/09/18 10:57:17;;;;;;;5.55;2.60;;;;;;;;;;4998015;28;20228;-52
2023/09/18 10:59:46;;;;;;;5.53;2.75;;;;;;;;;;4991592;28;20200;-52
2023/09/18 11:02:16;;;;;;;8.35;2.65;;;;;;;;;;5005444;28;20498;-51
2023/09/18 11:04:43;;;;;;;6.75;2.42;;;;;;;;;;5002950;28;20505;-51
2023/09/18 11:07:09;;;;;;;3.38;2.50;;;;;;;;;;4996819;28;20208;-51
2023/09/18 11:09:44;;;;;;;4.53;2.38;;;;;;;;;;4990804;28;20572;-52
2023/09/18 11:12:11;;;;;;;7.70;2.15;;;;;;;;;;4997490;28;20224;-51
2023/09/18 11:14:56;;;;;;;5.20;2.20;;;;;;;;;;5001823;28;20583;-51
2023/09/18 11:17:40;;;;;;;5.68;2.30;;;;;;;;;;4987510;28;20195;-51
2023/09/18 11:20:15;;;;;;;7.50;2.30;;;;;;;;;;4996718;28;20189;-51
2023/09/18 11:22:47;;;;;;;5.32;2.10;;;;;;;;;;4998841;28;20262;-51
2023/09/18 11:25:31;;;;;;;4.85;2.10;;;;;;;;;;5006228;28;20311;-51
2023/09/18 11:27:57;;;;;;;5.18;2.35;;;;;;;;;;5008103;28;20215;-53
2023/09/18 11:30:26;;;;;;;5.30;2.03;;;;;;;;;;5000265;28;20263;-53
2023/09/18 11:32:53;;;;;;;4.63;1.92;;;;;;;;;;5010016;28;20478;-53
2023/09/18 11:35:19;;;;;;;8.85;2.50;;;;;;;;;;5008645;28;20439;-53
2023/09/18 11:37:46;;;;;;;5.00;2.40;;;;;;;;;;5000861;28;20563;-53
2023/09/18 11:40:33;;;;;;;3.10;2.03;;;;;;;;;;4989399;28;20210;-53
2023/09/18 11:43:19;;;;;;;4.00;2.00;;;;;;;;;;4979815;28;20166;-53
2023/09/18 11:45:50;;;;;;;7.32;2.20;;;;;;;;;;4979830;28;20162;-53
2023/09/18 11:48:17;;;;;;;4.60;1.95;;;;;;;;;;4979614;28;20278;-53
2023/09/18 11:50:44;;;;;;;6.05;1.92;;;;;;;;;;4979292;28;20245;-53
2023/09/18 11:53:10;;;;;;;8.38;1.80;;;;;;;;;;4979456;28;20236;-53
2023/09/18 11:55:37;;;;;;;8.20;2.30;;;;;;;;;;4979507;28;20249;-53
2023/09/18 11:58:04;;;;;;;4.03;1.80;;;;;;;;;;4979953;28;20245;-53
2023/09/18 12:00:30;;;;;;;7.20;2.42;;;;;;;;;;4979810;28;20171;-53
2023/09/18 12:02:57;;;;;;;3.58;1.77;;;;;;;;;;4980103;28;20166;-53
2023/09/18 12:05:26;;;;;;;5.03;1.83;;;;;;;;;;4980064;28;20249;-53
2023/09/18 12:07:53;;;;;;;3.55;1.35;;;;;;;;;;4979863;28;20194;-53
2023/09/18 12:10:21;;;;;;;5.15;1.75;;;;;;;;;;4979836;28;20257;-53
2023/09/18 12:12:47;;;;;;;6.68;2.17;;;;;;;;;;4979585;28;20441;-53
2023/09/18 12:15:18;;;;;;;6.10;2.15;;;;;;;;;;4979840;28;20194;-53
2023/09/18 12:17:44;;;;;;;7.07;1.48;;;;;;;;;;4979259;28;20220;-53
2023/09/18 12:20:19;;;;;;;2.90;1.60;;;;;;;;;;4979770;28;20522;-53
2023/09/18 12:22:48;;;;;;;3.70;1.35;;;;;;;;;;4979498;28;20177;-53
2023/09/18 12:25:14;;;;;;;4.47;1.58;;;;;;;;;;4979005;28;20166;-53
2023/09/18 12:27:41;;;;;;;3.28;1.85;;;;;;;;;;4993369;28;20275;-53
2023/09/18 12:30:08;;;;;;;4.18;1.35;;;;;;;;;;4995496;28;20247;-54
2023/09/18 12:32:37;;;;;;;4.07;1.77;;;;;;;;;;4989005;28;20216;-53
2023/09/18 12:35:06;;;;;;;3.90;1.40;;;;;;;;;;4986294;28;20181;-53
2023/09/18 12:37:32;;;;;;;6.05;1.40;;;;;;;;;;4996308;28;20196;-53
2023/09/18 12:39:58;;;;;;;4.13;1.35;;;;;;;;;;4983649;28;20213;-53
2023/09/18 12:42:24;;;;;;;2.67;1.60;;;;;;;;;;4989455;28;20196;-53
2023/09/18 12:44:51;;;;;;;5.13;1.52;;;;;;;;;;4999867;28;20251;-53
2023/09/18 12:47:17;;;;;;;5.88;1.40;;;;;;;;;;5002378;28;20201;-53
2023/09/18 12:49:43;;;;;;;4.22;1.45;;;;;;;;;;4995352;28;20207;-53
2023/09/18 12:52:10;;;;;;;2.75;1.23;;;;;;;;;;4994860;28;20449;-53
2023/09/18 12:54:53;;;;;;;2.78;1.27;;;;;;;;;;5004926;28;20211;-53
2023/09/18 12:57:19;;;;;;;2.30;1.52;;;;;;;;;;5005968;28;20192;-53
2023/09/18 12:59:46;;;;;;;4.10;1.45;;;;;;;;;;5001751;28;20195;-53
2023/09/18 13:02:13;;;;;;;2.85;1.60;;;;;;;;;;5002797;28;20268;-53
2023/09/18 13:04:39;;;;;;;6.22;1.88;;;;;;;;;;4996596;28;20180;-54
2023/09/18 13:07:11;;;;;;;2.15;1.23;;;;;;;;;;5007783;28;20200;-54
2023/09/18 13:09:37;;;;;;;4.65;1.48;;;;;;;;;;4998639;28;20240;-53
2023/09/18 13:12:03;;;;;;;4.55;1.50;;;;;;;;;;4994379;28;20223;-53
2023/09/18 13:14:29;;;;;;;3.63;1.80;;;;;;;;;;5005483;28;20173;-53
2023/09/18 13:17:05;;;;;;;4.55;1.50;;;;;;;;;;4996671;28;20181;-53
2023/09/18 13:19:31;;;;;;;3.45;1.80;;;;;;;;;;4997440;28;20564;-54
2023/09/18 13:21:58;;;;;;;4.32;1.70;;;;;;;;;;5002452;28;20189;-54
2023/09/18 13:24:25;;;;;;;3.10;1.48;;;;;;;;;;4996028;28;20200;-53
2023/09/18 13:26:50;;;;;;;2.83;1.60;;;;;;;;;;5008167;28;20256;-53
2023/09/18 13:29:16;;;;;;;2.75;1.45;;;;;;;;;;5004898;28;20193;-53
2023/09/18 13:31:42;;;;;;;2.58;1.27;;;;;;;;;;5001804;28;20185;-53
2023/09/18 13:34:08;;;;;;;4.80;1.42;;;;;;;;;;4995812;28;20789;-53
2023/09/18 13:36:34;;;;;;;2.08;1.70;;;;;;;;;;5006000;28;20552;-53
2023/09/18 13:39:00;;;;;;;3.88;1.33;;;;;;;;;;5003022;28;20455;-54
2023/09/18 13:41:26;;;;;;;3.33;2.13;;;;;;;;;;4996566;28;20248;-53
2023/09/18 13:43:55;;;;;;;4.43;2.30;;;;;;;;;;4984567;28;20666;-53
2023/09/18 13:46:21;;;;;;;3.70;2.15;;;;;;;;;;5002983;28;20185;-54
2023/09/18 13:48:47;;;;;;;3.80;2.10;;;;;;;;;;4999194;28;20185;-54
2023/09/18 13:51:14;;;;;;;4.88;2.08;;;;;;;;;;4999707;28;20672;-53
2023/09/18 13:53:41;;;;;;;3.80;1.88;;;;;;;;;;4989944;28;20640;-54
2023/09/18 13:56:07;;;;;;;3.60;1.88;;;;;;;;;;4991397;28;20231;-53
2023/09/18 13:58:33;;;;;;;6.25;1.70;;;;;;;;;;4989811;28;20867;-53
2023/09/18 14:00:59;;;;;;;6.63;1.77;;;;;;;;;;4988991;28;20207;-54
2023/09/18 14:03:25;;;;;;;5.57;1.63;;;;;;;;;;4990442;28;20216;-54
2023/09/18 14:05:51;;;;;;;3.70;1.67;;;;;;;;;;4991138;28;20224;-54
2023/09/18 14:08:17;;;;;;;3.38;1.55;;;;;;;;;;4990220;28;20220;-54
2023/09/18 14:10:44;;;;;;;4.82;1.80;;;;;;;;;;4998574;28;20448;-54
2023/09/18 14:13:10;;;;;;;3.13;1.52;;;;;;;;;;4989763;28;20268;-54
2023/09/18 14:15:37;;;;;;;3.90;2.55;;;;;;;;;;5002271;28;20188;-54
2023/09/18 14:18:03;;;;;;;16.20;6.85;;;;;;;;;;5003726;28;20181;-54
2023/09/18 14:20:29;;;;;;;36.65;9.18;;;;;;;;;;4987599;28;20181;-54
2023/09/18 14:22:55;;;;;;;22.92;7.88;;;;;;;;;;4995327;28;20575;-54
2023/09/18 14:25:22;;;;;;;13.75;5.43;;;;;;;;;;4997492;28;20229;-54
2023/09/18 14:27:48;;;;;;;11.77;4.60;;;;;;;;;;5010047;28;20259;-54
2023/09/18 14:30:14;;;;;;;14.82;4.78;;;;;;;;;;5001076;28;20173;-54
2023/09/18 14:32:40;;;;;;;25.83;9.35;;;;;;;;;;4999213;28;20231;-53
2023/09/18 14:35:09;;;;;;;61.45;29.83;;;;;;;;;;5003828;28;20181;-54
2023/09/18 14:37:36;;;;;;;53.10;27.63;;;;;;;;;;5000582;28;20197;-54
2023/09/18 14:40:02;;;;;;;40.45;21.52;;;;;;;;;;4990538;28;20227;-54
2023/09/18 14:42:28;;;;;;;34.20;16.13;;;;;;;;;;4999393;28;20561;-54